Strona główna
METAR-TAF:

METAR-TAF

Lotnisko :

Port lotniczy Cambridge

Cambridge, Anglia

Szerokość geograficzna: 52-12N, Długość geograficzna: 000-11E, wysokość: 15 m

Aktualna obserwacja pogody

Raport powstał 13 godziny i 2 minut temu, godzina 16:50 UTC
Wiatr 6 kt od północno-północny wschód
Temperatura 22°C
Wilgotność 46%
Ciśnienie 1034 hPa
Widzialność 10 km lub więcej
Mało chmury na wysokości 4800 ft

METAR: EGSC 271650Z 03006KT 9999 FEW048 22/10 Q1034

czas: 06:52 (05:52 UTC)

Prognoza

Raport powstał 15 godziny i 52 minut temu, godzina 14:00 UTC
Prognoza ważna od 27 godzina 15 UTC do 27 godzina 17 UTC
Wiatr 5 kt od północny wschód
Widzialność 10 km lub więcej
Mało chmury na wysokości 4800 ft

TAF: EGSC 271400Z 2715/2717 04005KT 9999 FEW048

Obserwacja i prognoza pogody dla ponad 4000 lotnisk (raport METAR i TAF).

Dostępne stacje oznaczono żółtymi i czerwonymi punktami na mapie.

Najedź kursorem aby zobaczyć nazwę stacji.

Kliknij aby zobaczyć obserwacje i prognozy pogody.

Aby zmienić mapę: kliknij na zielony przycisk z czarnym krzyżykiem, aby powiększyć; na zielony przycisk z myślnikiem, aby pomniejszyć; na zielone strzałki, aby przejść do map sąsiednich.


METAR-TAF: